Time;durP1;ratioP1;P1;durP2;ratioP2;P2;SDS_P1;SDS_P2;PMS_P1;PMS_P2;Temp;Humidity;BMP_temperature;BMP_pressure;BME280_temperature;BME280_humidity;BME280_pressure;Samples;Min_cycle;Max_cycle;Signal;HPM_P1;HPM_P2
2021/04/07 00:00:35;;;;;;;1.90;1.80;;;0.50;99.90;;;;;;4822599;29;20786;-79
2021/04/07 00:03:01;;;;;;;1.98;1.83;;;0.50;99.90;;;;;;4823033;29;21166;-79
2021/04/07 00:05:32;;;;;;;2.30;1.80;;;0.60;99.90;;;;;;4856538;29;20430;-77
2021/04/07 00:07:58;;;;;;;1.80;1.70;;;0.60;99.90;;;;;;4823946;29;20451;-76
2021/04/07 00:10:29;;;;;;;1.77;1.67;;;0.60;99.90;;;;;;4835443;29;20400;-76
2021/04/07 00:12:55;;;;;;;1.80;1.70;;;0.60;99.90;;;;;;4838450;29;20883;-77
2021/04/07 00:15:22;;;;;;;3.00;1.90;;;0.60;99.90;;;;;;4834247;29;20402;-76
2021/04/07 00:17:48;;;;;;;2.00;1.90;;;0.80;99.90;;;;;;4839864;29;20887;-78
2021/04/07 00:20:16;;;;;;;2.20;1.80;;;0.70;99.90;;;;;;4838730;29;20419;-77
2021/04/07 00:22:42;;;;;;;2.30;1.70;;;0.70;99.90;;;;;;4829637;29;20835;-77
2021/04/07 00:25:08;;;;;;;1.83;1.67;;;0.80;99.90;;;;;;4839591;29;20509;-78
2021/04/07 00:27:36;;;;;;;2.10;1.90;;;0.70;99.90;;;;;;4839086;29;20414;-77
2021/04/07 00:30:04;;;;;;;1.80;1.70;;;0.70;99.90;;;;;;4835169;29;20412;-76
2021/04/07 00:32:29;;;;;;;1.83;1.73;;;0.70;99.90;;;;;;4814668;29;20428;-77
2021/04/07 00:34:55;;;;;;;2.72;1.92;;;0.80;99.90;;;;;;4828968;29;20911;-77
2021/04/07 00:37:21;;;;;;;1.70;1.60;;;0.70;99.90;;;;;;4836789;29;20946;-78
2021/04/07 00:39:46;;;;;;;2.20;2.00;;;0.80;99.90;;;;;;4827217;29;20484;-77
2021/04/07 00:42:12;;;;;;;1.92;1.80;;;0.80;99.90;;;;;;4839677;29;20457;-77
2021/04/07 00:44:38;;;;;;;1.80;1.70;;;0.70;99.90;;;;;;4837725;29;20485;-77
2021/04/07 00:47:04;;;;;;;2.00;1.90;;;0.80;99.90;;;;;;4837719;29;20457;-77
2021/04/07 00:49:29;;;;;;;2.20;2.00;;;0.80;99.90;;;;;;4836079;29;20435;-76
2021/04/07 00:51:55;;;;;;;2.10;2.00;;;0.80;99.90;;;;;;4838264;29;20515;-77
2021/04/07 00:54:21;;;;;;;1.98;1.80;;;0.80;99.90;;;;;;4838158;29;20404;-78
2021/04/07 00:56:49;;;;;;;2.17;1.97;;;0.80;99.90;;;;;;4820040;29;20414;-76
2021/04/07 00:59:15;;;;;;;2.03;1.80;;;0.80;99.90;;;;;;4855907;29;20420;-77
2021/04/07 01:01:40;;;;;;;1.75;1.65;;;0.80;99.90;;;;;;4822130;29;20931;-77
2021/04/07 01:04:06;;;;;;;2.38;2.17;;;0.80;99.90;;;;;;4814765;29;20429;-77
2021/04/07 01:06:34;;;;;;;2.00;1.80;;;0.80;99.90;;;;;;4816673;29;20406;-78
2021/04/07 01:09:01;;;;;;;2.72;2.00;;;0.80;99.90;;;;;;4833720;29;20414;-77
2021/04/07 01:11:26;;;;;;;2.47;2.00;;;0.80;99.90;;;;;;4842301;29;20445;-77
2021/04/07 01:13:52;;;;;;;2.28;2.08;;;0.80;99.90;;;;;;4807831;29;21138;-77
2021/04/07 01:16:18;;;;;;;3.33;2.30;;;0.80;99.90;;;;;;4832928;29;20514;-77
2021/04/07 01:18:43;;;;;;;2.57;2.37;;;0.80;99.90;;;;;;4840110;29;20408;-77
2021/04/07 01:21:09;;;;;;;2.53;2.33;;;0.80;99.90;;;;;;4833456;29;20408;-78
2021/04/07 01:23:35;;;;;;;2.22;2.03;;;0.80;99.90;;;;;;4844300;29;20463;-77
2021/04/07 01:26:00;;;;;;;2.60;2.40;;;0.80;99.90;;;;;;4835982;29;20924;-77
2021/04/07 01:28:26;;;;;;;2.50;2.23;;;0.80;99.90;;;;;;4814821;29;20404;-80
2021/04/07 01:30:52;;;;;;;2.70;2.45;;;0.70;99.90;;;;;;4840397;29;20445;-77
2021/04/07 01:33:22;;;;;;;2.63;2.43;;;0.70;99.90;;;;;;4856288;29;20398;-76
2021/04/07 01:35:47;;;;;;;3.08;2.47;;;0.70;99.90;;;;;;4825952;29;20418;-77
2021/04/07 01:38:13;;;;;;;2.57;2.37;;;0.70;99.90;;;;;;4842572;29;20513;-78
2021/04/07 01:40:40;;;;;;;3.30;2.58;;;0.70;99.90;;;;;;4850533;29;20447;-80
2021/04/07 01:43:06;;;;;;;2.80;2.50;;;0.70;99.90;;;;;;4828522;29;20467;-77
2021/04/07 01:45:32;;;;;;;3.00;2.67;;;0.70;99.90;;;;;;4837694;29;20464;-78
2021/04/07 01:47:57;;;;;;;3.00;2.70;;;0.70;99.90;;;;;;4829496;29;21011;-78
2021/04/07 01:50:23;;;;;;;2.97;2.67;;;0.70;99.90;;;;;;4849125;29;20409;-78
2021/04/07 01:52:49;;;;;;;3.17;2.90;;;0.70;99.90;;;;;;4866664;29;20473;-80
2021/04/07 01:55:15;;;;;;;2.93;2.60;;;0.70;99.90;;;;;;4861131;29;20406;-78
2021/04/07 01:57:40;;;;;;;2.72;2.50;;;0.70;99.90;;;;;;4842410;29;20421;-77
2021/04/07 02:00:09;;;;;;;2.92;2.63;;;0.60;99.90;;;;;;4826312;29;20430;-77
2021/04/07 02:02:38;;;;;;;3.08;2.55;;;0.60;99.90;;;;;;4855959;29;20484;-78
2021/04/07 02:05:05;;;;;;;6.23;2.60;;;0.60;99.90;;;;;;4826591;29;20422;-77
2021/04/07 02:07:31;;;;;;;4.43;2.80;;;0.60;99.90;;;;;;4818531;29;20503;-77
2021/04/07 02:09:59;;;;;;;3.10;2.80;;;0.60;99.90;;;;;;4821388;29;20499;-78
2021/04/07 02:12:25;;;;;;;2.50;2.30;;;0.60;99.90;;;;;;4836289;29;20430;-77
2021/04/07 02:14:51;;;;;;;2.83;2.63;;;0.60;99.90;;;;;;4841538;29;20410;-78
2021/04/07 02:17:17;;;;;;;3.95;2.80;;;0.60;99.90;;;;;;4818352;29;20455;-77
2021/04/07 02:19:42;;;;;;;3.30;2.70;;;0.60;99.90;;;;;;4843911;29;20930;-78
2021/04/07 02:22:12;;;;;;;3.50;2.60;;;0.60;99.90;;;;;;4845498;29;20453;-76
2021/04/07 02:24:39;;;;;;;2.45;2.28;;;0.60;99.90;;;;;;4841650;29;20410;-78
2021/04/07 02:27:18;;;;;;;2.53;2.33;;;0.60;99.90;;;;;;4836758;29;20418;-79
2021/04/07 02:29:45;;;;;;;2.95;2.50;;;0.60;99.90;;;;;;4838725;29;20420;-77
2021/04/07 02:32:11;;;;;;;2.78;2.50;;;0.60;99.90;;;;;;4823124;29;20440;-77
2021/04/07 02:34:38;;;;;;;2.80;2.50;;;0.60;99.90;;;;;;4829396;29;20412;-77
2021/04/07 02:37:04;;;;;;;3.10;2.57;;;0.60;99.90;;;;;;4827112;29;20489;-78
2021/04/07 02:39:30;;;;;;;2.77;2.57;;;0.60;99.90;;;;;;4819167;29;20515;-77
2021/04/07 02:41:55;;;;;;;2.80;2.30;;;0.60;99.90;;;;;;4825188;29;20429;-78
2021/04/07 02:44:21;;;;;;;3.00;2.70;;;0.60;99.90;;;;;;4846146;29;20520;-76
2021/04/07 02:46:47;;;;;;;3.40;2.40;;;0.60;99.90;;;;;;4826729;29;20421;-76
2021/04/07 02:49:13;;;;;;;3.07;2.63;;;0.60;99.90;;;;;;4841531;29;21188;-78
2021/04/07 02:51:38;;;;;;;2.30;2.10;;;0.60;99.90;;;;;;4824720;29;20429;-77
2021/04/07 02:54:04;;;;;;;2.58;2.38;;;0.60;99.90;;;;;;4832529;29;20414;-77
2021/04/07 02:56:30;;;;;;;2.70;2.50;;;0.60;99.90;;;;;;4839589;29;20473;-79
2021/04/07 02:58:56;;;;;;;2.25;2.10;;;0.60;99.90;;;;;;4850582;29;20428;-78
2021/04/07 03:01:22;;;;;;;2.60;2.40;;;0.50;99.90;;;;;;4806905;29;21089;-76
2021/04/07 03:03:48;;;;;;;3.47;2.53;;;0.50;99.90;;;;;;4846555;29;20397;-79
2021/04/07 03:06:13;;;;;;;2.33;2.10;;;0.60;99.90;;;;;;4835105;29;20505;-77
2021/04/07 03:08:39;;;;;;;2.63;2.43;;;0.60;99.90;;;;;;4820032;29;20412;-79
2021/04/07 03:11:05;;;;;;;4.03;2.38;;;0.60;99.90;;;;;;4829707;29;20483;-78
2021/04/07 03:13:30;;;;;;;2.17;2.08;;;0.60;99.90;;;;;;4842498;29;20903;-79
2021/04/07 03:15:56;;;;;;;2.60;2.40;;;0.70;99.90;;;;;;4837447;29;20994;-74
2021/04/07 03:18:22;;;;;;;2.93;2.53;;;0.60;99.90;;;;;;4844669;29;20446;-77
2021/04/07 03:20:48;;;;;;;2.90;2.60;;;0.70;99.90;;;;;;4849578;29;20915;-81
2021/04/07 03:23:13;;;;;;;2.78;2.58;;;0.70;99.90;;;;;;4816509;29;20412;-78
2021/04/07 03:25:39;;;;;;;2.90;2.60;;;0.70;99.90;;;;;;4815279;29;20398;-78
2021/04/07 03:28:04;;;;;;;2.55;2.35;;;0.70;99.90;;;;;;4841321;29;20410;-78
2021/04/07 03:30:48;;;;;;;2.55;2.28;;;0.60;99.90;;;;;;4820229;29;20474;-79
2021/04/07 03:33:15;;;;;;;2.63;2.43;;;0.60;99.90;;;;;;4841516;29;20449;-77
2021/04/07 03:35:41;;;;;;;2.72;2.45;;;0.60;99.90;;;;;;4847781;29;20438;-79
2021/04/07 03:38:07;;;;;;;3.03;2.50;;;0.70;99.90;;;;;;4817191;29;20408;-79
2021/04/07 03:40:32;;;;;;;3.00;2.70;;;0.60;99.90;;;;;;4813062;29;20419;-77
2021/04/07 03:42:58;;;;;;;2.50;2.30;;;0.60;99.90;;;;;;4848839;29;20406;-77
2021/04/07 03:45:24;;;;;;;2.40;2.20;;;0.60;99.90;;;;;;4825420;29;20453;-79
2021/04/07 03:47:49;;;;;;;3.63;2.47;;;0.60;99.90;;;;;;4834742;29;20490;-78
2021/04/07 03:50:15;;;;;;;3.03;2.53;;;0.60;99.90;;;;;;4848770;29;20974;-78
2021/04/07 03:52:40;;;;;;;3.20;2.50;;;0.60;99.90;;;;;;4849314;29;20424;-78
2021/04/07 03:55:07;;;;;;;3.00;2.70;;;0.70;99.90;;;;;;4840669;29;20412;-78
2021/04/07 03:57:32;;;;;;;2.95;2.67;;;0.70;99.90;;;;;;4838137;29;20412;-77
2021/04/07 03:59:58;;;;;;;2.73;2.40;;;0.70;99.90;;;;;;4848177;29;20421;-78
2021/04/07 04:02:24;;;;;;;2.33;2.20;;;0.70;99.90;;;;;;4830451;29;20516;-77
2021/04/07 04:04:49;;;;;;;3.25;2.40;;;0.70;99.90;;;;;;4844122;29;20421;-78
2021/04/07 04:07:15;;;;;;;3.77;2.50;;;0.70;99.90;;;;;;4817400;29;20407;-76
2021/04/07 04:09:41;;;;;;;2.73;2.40;;;0.70;99.90;;;;;;4837715;29;20430;-77
2021/04/07 04:12:07;;;;;;;3.05;2.47;;;0.70;99.90;;;;;;4835513;29;20475;-77
2021/04/07 04:14:35;;;;;;;2.53;2.33;;;0.70;99.90;;;;;;4811205;29;20408;-77
2021/04/07 04:17:00;;;;;;;2.97;2.67;;;0.70;99.90;;;;;;4823587;29;20460;-77
2021/04/07 04:19:26;;;;;;;4.50;2.83;;;0.70;99.90;;;;;;4836583;29;20412;-78
2021/04/07 04:21:53;;;;;;;4.77;2.80;;;0.80;99.90;;;;;;4838700;29;20520;-79
2021/04/07 04:24:18;;;;;;;3.55;2.78;;;0.80;99.90;;;;;;4828667;29;20408;-81
2021/04/07 04:26:46;;;;;;;2.65;2.45;;;0.80;99.90;;;;;;4821477;29;20539;-79
2021/04/07 04:29:11;;;;;;;3.30;2.78;;;0.80;99.90;;;;;;4859145;29;20439;-78
2021/04/07 04:31:43;;;;;;;3.22;2.90;;;0.80;99.90;;;;;;4842860;29;20424;-78
2021/04/07 04:34:09;;;;;;;3.25;2.95;;;0.80;99.90;;;;;;4832025;29;20416;-78
2021/04/07 04:36:35;;;;;;;4.57;2.90;;;0.80;99.90;;;;;;4865620;29;20460;-78
2021/04/07 04:39:03;;;;;;;6.63;3.38;;;0.80;99.90;;;;;;4850692;29;20414;-81
2021/04/07 04:41:29;;;;;;;3.22;2.92;;;0.90;99.90;;;;;;4846458;29;20477;-79
2021/04/07 04:43:55;;;;;;;3.13;2.88;;;0.80;99.90;;;;;;4838040;29;21067;-78
2021/04/07 04:46:22;;;;;;;3.60;3.22;;;0.80;99.90;;;;;;4847330;29;20505;-78
2021/04/07 04:48:49;;;;;;;5.28;2.92;;;0.70;99.90;;;;;;4852068;29;20417;-77
2021/04/07 04:51:50;;;;;;;3.63;3.30;;;0.70;99.90;;;;;;4846700;29;20509;-77
2021/04/07 04:54:40;;;;;;;3.47;3.15;;;0.80;99.90;;;;;;4849142;29;20423;-77
2021/04/07 05:01:35;;;;;;;3.72;2.88;;;0.80;99.90;;;;;;4849306;29;20425;-78
2021/04/07 05:04:08;;;;;;;3.25;2.90;;;0.80;99.90;;;;;;4834057;29;20908;-78
2021/04/07 05:06:35;;;;;;;5.30;3.65;;;0.80;99.90;;;;;;4816683;29;20415;-79
2021/04/07 05:10:12;;;;;;;3.85;3.00;;;0.80;99.90;;;;;;4859776;29;20419;-80
2021/04/07 05:13:11;;;;;;;4.70;3.20;;;0.80;99.90;;;;;;4850434;29;20418;-75
2021/04/07 05:15:37;;;;;;;3.20;2.90;;;0.80;99.90;;;;;;4822014;29;20480;-78
2021/04/07 05:18:13;;;;;;;3.70;2.70;;;0.80;99.90;;;;;;4830950;29;20403;-77
2021/04/07 05:20:38;;;;;;;3.28;2.80;;;0.80;99.90;;;;;;4833965;29;20923;-77
2021/04/07 05:23:04;;;;;;;3.22;2.92;;;0.80;99.90;;;;;;4834181;29;20423;-77
2021/04/07 05:25:30;;;;;;;2.92;2.72;;;0.80;99.90;;;;;;4839268;29;20429;-77
2021/04/07 05:27:56;;;;;;;3.50;2.70;;;0.80;99.90;;;;;;4834969;29;20414;-77
2021/04/07 05:30:22;;;;;;;3.10;2.80;;;0.80;99.90;;;;;;4837614;29;20408;-77
2021/04/07 05:32:47;;;;;;;3.25;2.95;;;0.90;99.90;;;;;;4820701;29;20436;-76
2021/04/07 05:35:13;;;;;;;3.00;2.30;;;0.90;99.90;;;;;;4842432;29;20402;-77
2021/04/07 05:37:39;;;;;;;3.35;2.80;;;0.90;99.90;;;;;;4851228;29;20982;-76
2021/04/07 05:40:05;;;;;;;2.97;2.70;;;0.90;99.90;;;;;;4834326;29;20395;-78
2021/04/07 05:42:31;;;;;;;2.92;2.65;;;0.90;99.90;;;;;;4814791;29;20421;-76
2021/04/07 05:44:57;;;;;;;3.17;2.70;;;0.90;99.90;;;;;;4862979;29;21107;-76
2021/04/07 05:47:22;;;;;;;4.05;2.80;;;0.90;99.90;;;;;;4831715;29;20412;-78
2021/04/07 05:49:48;;;;;;;3.13;2.83;;;0.90;99.90;;;;;;4817731;29;20526;-78
2021/04/07 05:52:14;;;;;;;3.30;3.00;;;1.00;99.90;;;;;;4834813;29;20494;-79
2021/04/07 05:54:39;;;;;;;3.25;2.95;;;1.00;99.90;;;;;;4816562;29;20407;-82
2021/04/07 05:57:05;;;;;;;3.23;2.93;;;1.00;99.90;;;;;;4819348;29;20393;-76
2021/04/07 05:59:31;;;;;;;3.30;3.00;;;1.00;99.90;;;;;;4833136;29;20454;-77
2021/04/07 06:01:57;;;;;;;3.70;3.33;;;1.00;99.90;;;;;;4835604;29;20428;-77
2021/04/07 06:04:22;;;;;;;3.67;2.80;;;1.10;99.90;;;;;;4846429;29;20411;-77
2021/04/07 06:06:48;;;;;;;3.53;2.67;;;1.10;99.90;;;;;;4821184;29;21019;-78
2021/04/07 06:09:14;;;;;;;3.07;2.73;;;1.10;99.90;;;;;;4839499;29;21325;-77
2021/04/07 06:11:39;;;;;;;5.97;3.10;;;1.20;99.90;;;;;;4821695;29;20455;-77
2021/04/07 06:14:05;;;;;;;2.77;2.57;;;1.30;99.90;;;;;;4824275;29;20483;-77
2021/04/07 06:16:31;;;;;;;2.93;2.67;;;1.30;99.90;;;;;;4838564;29;20461;-77
2021/04/07 06:18:57;;;;;;;3.40;2.55;;;1.40;99.90;;;;;;4838190;29;20406;-78
2021/04/07 06:21:22;;;;;;;2.70;2.50;;;1.30;99.90;;;;;;4836592;29;20403;-78
2021/04/07 06:23:48;;;;;;;3.88;2.88;;;1.50;99.90;;;;;;4833224;29;20419;-78
2021/04/07 06:26:14;;;;;;;3.10;2.80;;;1.40;99.90;;;;;;4839718;29;20399;-77
2021/04/07 06:28:39;;;;;;;2.50;2.30;;;1.50;99.90;;;;;;4840822;29;20570;-77
2021/04/07 06:31:05;;;;;;;3.05;2.75;;;1.50;99.90;;;;;;4838952;29;20919;-79
2021/04/07 06:33:32;;;;;;;2.88;2.67;;;1.50;99.90;;;;;;4824979;29;20482;-77
2021/04/07 06:36:02;;;;;;;3.22;2.50;;;1.40;99.90;;;;;;4828088;29;20427;-77
2021/04/07 06:38:27;;;;;;;2.63;2.42;;;1.50;99.90;;;;;;4842275;29;20424;-78
2021/04/07 06:40:54;;;;;;;3.05;2.50;;;1.50;99.90;;;;;;4828181;29;20398;-77
2021/04/07 06:43:21;;;;;;;2.50;2.30;;;1.50;99.90;;;;;;4840986;29;20427;-78
2021/04/07 06:45:47;;;;;;;3.20;2.67;;;1.50;99.90;;;;;;4835360;29;20423;-79
2021/04/07 06:48:13;;;;;;;2.97;2.30;;;1.60;99.90;;;;;;4822851;29;20404;-78
2021/04/07 06:50:39;;;;;;;2.83;2.40;;;1.60;99.90;;;;;;4815607;29;20493;-77
2021/04/07 06:53:06;;;;;;;3.10;2.75;;;1.60;99.90;;;;;;4819268;29;20902;-77
2021/04/07 06:55:32;;;;;;;2.60;2.40;;;1.70;99.90;;;;;;4816704;29;20893;-77
2021/04/07 06:57:57;;;;;;;3.20;2.37;;;1.70;99.90;;;;;;4813446;29;20410;-77
2021/04/07 07:00:26;;;;;;;2.50;2.30;;;1.90;99.90;;;;;;4818862;29;20493;-77
2021/04/07 07:03:02;;;;;;;3.45;2.70;;;1.80;99.90;;;;;;4820941;29;20414;-78
2021/04/07 07:05:29;;;;;;;2.65;2.45;;;1.80;99.90;;;;;;4837825;29;20893;-78
2021/04/07 07:08:02;;;;;;;2.53;2.28;;;1.80;99.90;;;;;;4835781;29;20412;-78
2021/04/07 07:10:34;;;;;;;2.73;2.53;;;1.90;99.90;;;;;;4848602;29;20486;-78
2021/04/07 07:13:00;;;;;;;2.53;2.30;;;1.90;99.90;;;;;;4845482;29;20435;-78
2021/04/07 07:15:25;;;;;;;3.53;2.80;;;2.00;99.90;;;;;;4832362;29;20399;-79
2021/04/07 07:17:51;;;;;;;2.65;2.45;;;2.00;99.90;;;;;;4822654;29;20396;-78
2021/04/07 07:20:28;;;;;;;3.83;2.87;;;2.00;99.90;;;;;;4836117;29;20741;-78
2021/04/07 07:22:54;;;;;;;3.03;2.50;;;2.10;99.90;;;;;;4827556;29;20421;-78
2021/04/07 07:25:19;;;;;;;2.80;2.50;;;2.20;99.90;;;;;;4863674;29;20402;-76
2021/04/07 07:27:45;;;;;;;2.92;2.40;;;2.30;99.90;;;;;;4838971;29;20408;-78
2021/04/07 07:30:15;;;;;;;2.77;2.53;;;2.40;99.90;;;;;;4846160;29;20412;-77
2021/04/07 07:32:41;;;;;;;4.32;2.47;;;2.40;99.90;;;;;;4841216;29;20497;-78
2021/04/07 07:35:11;;;;;;;3.28;2.40;;;2.40;99.90;;;;;;4824349;29;20411;-78
2021/04/07 07:37:37;;;;;;;2.70;2.50;;;2.40;99.90;;;;;;4812060;29;20398;-77
2021/04/07 07:40:05;;;;;;;2.63;2.40;;;2.60;99.90;;;;;;4838476;29;20881;-79
2021/04/07 07:42:31;;;;;;;3.90;2.35;;;2.50;99.90;;;;;;4832371;29;20420;-77
2021/04/07 07:44:56;;;;;;;2.57;2.27;;;2.50;99.90;;;;;;4831582;29;20491;-79
2021/04/07 07:47:30;;;;;;;3.08;2.20;;;2.60;99.90;;;;;;4837082;29;21004;-77
2021/04/07 07:50:00;;;;;;;2.90;2.35;;;2.70;99.90;;;;;;4821648;29;20407;-79
2021/04/07 07:52:27;;;;;;;2.45;1.90;;;2.80;99.90;;;;;;4809834;29;20789;-78
2021/04/07 07:54:53;;;;;;;2.67;1.92;;;2.70;99.90;;;;;;4812738;29;20411;-78
2021/04/07 07:57:19;;;;;;;3.58;1.70;;;2.70;99.90;;;;;;4838600;29;20402;-79
2021/04/07 07:59:44;;;;;;;2.87;1.67;;;2.80;99.90;;;;;;4834379;29;20901;-78
2021/04/07 08:02:25;;;;;;;2.50;1.90;;;2.80;99.90;;;;;;4847175;29;20432;-77
2021/04/07 08:04:50;;;;;;;1.80;1.70;;;2.80;99.90;;;;;;4847026;29;20397;-78
2021/04/07 08:07:16;;;;;;;1.60;1.42;;;3.00;99.90;;;;;;4829883;29;20411;-79
2021/04/07 08:09:42;;;;;;;2.08;1.83;;;3.20;99.90;;;;;;4838486;29;20396;-80
2021/04/07 08:12:09;;;;;;;3.13;2.03;;;3.20;99.90;;;;;;4827558;29;20422;-79
2021/04/07 08:14:35;;;;;;;2.30;1.85;;;3.20;99.90;;;;;;4847196;29;20479;-79
2021/04/07 08:17:00;;;;;;;3.10;1.93;;;3.30;99.90;;;;;;4826774;29;20482;-79
2021/04/07 08:19:26;;;;;;;3.20;2.03;;;3.50;99.90;;;;;;4841949;29;20501;-80
2021/04/07 08:21:53;;;;;;;2.72;1.77;;;3.60;99.90;;;;;;4811997;29;20434;-80
2021/04/07 08:24:19;;;;;;;2.70;1.80;;;3.50;99.90;;;;;;4841256;29;20405;-79
2021/04/07 08:26:44;;;;;;;2.17;1.67;;;3.60;99.90;;;;;;4836965;29;20408;-79
2021/04/07 08:29:10;;;;;;;3.33;2.05;;;3.70;99.90;;;;;;4844101;29;20405;-79
2021/04/07 08:31:36;;;;;;;2.50;1.63;;;3.90;99.90;;;;;;4824730;29;20436;-79
2021/04/07 08:34:03;;;;;;;3.65;1.90;;;3.90;99.90;;;;;;4822680;29;20408;-79
2021/04/07 08:36:29;;;;;;;2.65;1.77;;;3.90;99.90;;;;;;4833339;29;20399;-79
2021/04/07 08:39:06;;;;;;;2.17;1.80;;;3.80;99.90;;;;;;4816344;29;20443;-79
2021/04/07 08:41:31;;;;;;;5.20;2.20;;;3.60;99.90;;;;;;4838316;29;20414;-78
2021/04/07 08:43:57;;;;;;;4.22;1.92;;;3.60;99.90;;;;;;4838254;29;20420;-79
2021/04/07 08:46:25;;;;;;;2.40;1.92;;;3.50;99.90;;;;;;4806936;29;20427;-78
2021/04/07 08:48:51;;;;;;;2.92;2.10;;;3.50;99.90;;;;;;4819069;29;20443;-78
2021/04/07 08:51:19;;;;;;;2.30;2.03;;;3.50;99.90;;;;;;4829860;29;20795;-79
2021/04/07 08:53:48;;;;;;;2.13;1.92;;;3.40;99.90;;;;;;4822984;29;20408;-78
2021/04/07 08:56:15;;;;;;;2.00;1.80;;;3.50;99.90;;;;;;4822362;29;20408;-78
2021/04/07 08:58:51;;;;;;;2.83;1.90;;;3.60;99.90;;;;;;4831103;29;20458;-78
2021/04/07 09:01:36;;;;;;;4.13;1.73;;;3.80;99.90;;;;;;4837935;29;20423;-79
2021/04/07 09:04:33;;;;;;;2.42;1.85;;;3.70;99.90;;;;;;4845093;29;20410;-79
2021/04/07 09:07:00;;;;;;;2.45;1.90;;;3.60;99.90;;;;;;4824085;29;20402;-79
2021/04/07 09:09:25;;;;;;;1.70;1.60;;;3.50;99.90;;;;;;4822424;29;20923;-79
2021/04/07 09:11:51;;;;;;;2.30;1.42;;;3.50;99.90;;;;;;4831621;29;20418;-78
2021/04/07 09:14:18;;;;;;;2.45;1.70;;;3.60;99.90;;;;;;4835043;29;20897;-79
2021/04/07 09:16:43;;;;;;;4.45;1.75;;;3.80;99.90;;;;;;4855384;29;20415;-79
2021/04/07 09:19:18;;;;;;;2.35;1.60;;;3.70;99.90;;;;;;4840435;29;20395;-79
2021/04/07 09:22:06;;;;;;;2.03;1.70;;;3.80;99.90;;;;;;4834206;29;20396;-79
2021/04/07 09:24:37;;;;;;;2.08;1.50;;;3.80;99.90;;;;;;4868980;29;20414;-78
2021/04/07 09:27:03;;;;;;;2.00;1.73;;;3.90;99.90;;;;;;4832235;29;20463;-79
2021/04/07 09:29:28;;;;;;;1.80;1.60;;;4.00;99.90;;;;;;4810792;29;20412;-79
2021/04/07 09:31:54;;;;;;;2.40;1.52;;;4.10;99.90;;;;;;4841064;29;20442;-79
2021/04/07 09:34:20;;;;;;;1.80;1.70;;;4.20;99.90;;;;;;4830352;29;20396;-78
2021/04/07 09:36:48;;;;;;;3.33;1.60;;;4.40;99.90;;;;;;4834229;29;20817;-80
2021/04/07 09:39:18;;;;;;;2.22;1.70;;;4.50;99.90;;;;;;4834807;29;20410;-80
2021/04/07 09:41:44;;;;;;;2.20;1.70;;;4.60;99.90;;;;;;4834928;29;20410;-78
2021/04/07 09:44:11;;;;;;;1.97;1.60;;;4.90;99.90;;;;;;4837421;29;20402;-78
2021/04/07 09:46:37;;;;;;;3.22;1.85;;;5.40;99.90;;;;;;4838963;29;20416;-77
2021/04/07 09:49:10;;;;;;;3.38;1.88;;;5.60;99.90;;;;;;4836080;29;20411;-79
2021/04/07 09:51:40;;;;;;;2.00;1.60;;;5.70;99.90;;;;;;4844812;29;20433;-79
2021/04/07 09:54:20;;;;;;;2.77;1.90;;;5.70;99.90;;;;;;4805524;29;20407;-78
2021/04/07 09:57:00;;;;;;;5.27;2.30;;;5.80;99.90;;;;;;4834193;29;20407;-78
2021/04/07 09:59:50;;;;;;;1.50;1.40;;;6.10;99.90;;;;;;4839728;29;20392;-78
2021/04/07 10:02:26;;;;;;;3.22;1.85;;;5.40;99.90;;;;;;4824273;29;20791;-78
2021/04/07 10:04:53;;;;;;;2.80;1.85;;;4.40;99.90;;;;;;4828769;29;20456;-76
2021/04/07 10:07:26;;;;;;;3.13;1.60;;;4.10;99.90;;;;;;4832682;29;20904;-78
2021/04/07 10:09:56;;;;;;;1.75;1.27;;;3.70;99.90;;;;;;4819185;29;20776;-77
2021/04/07 10:12:23;;;;;;;1.83;1.48;;;3.60;99.90;;;;;;4838796;29;20423;-76
2021/04/07 10:14:59;;;;;;;2.63;1.90;;;3.60;99.90;;;;;;4849272;29;20411;-78
2021/04/07 10:17:25;;;;;;;4.38;1.70;;;3.80;99.90;;;;;;4837158;29;20408;-76
2021/04/07 10:19:50;;;;;;;3.08;2.17;;;4.40;99.90;;;;;;4855314;29;20898;-78
2021/04/07 10:22:24;;;;;;;2.77;1.77;;;4.80;99.90;;;;;;4841123;29;20834;-77
2021/04/07 10:24:49;;;;;;;3.08;2.10;;;5.20;99.90;;;;;;4829693;29;20437;-78
2021/04/07 10:27:19;;;;;;;2.65;1.80;;;5.30;99.90;;;;;;4833150;29;20458;-78
2021/04/07 10:29:45;;;;;;;2.53;1.80;;;4.80;99.90;;;;;;4820371;29;20414;-78
2021/04/07 10:32:15;;;;;;;2.97;2.33;;;4.70;99.90;;;;;;4837783;29;20500;-77
2021/04/07 10:34:41;;;;;;;3.03;1.98;;;4.60;99.90;;;;;;4834845;29;20477;-77
2021/04/07 10:37:06;;;;;;;4.60;1.88;;;4.60;99.90;;;;;;4840525;29;20414;-78
2021/04/07 10:39:36;;;;;;;1.40;1.30;;;4.80;99.90;;;;;;4838608;29;20420;-78
2021/04/07 10:42:02;;;;;;;1.70;1.33;;;5.10;99.90;;;;;;4841158;29;20851;-78
2021/04/07 10:44:29;;;;;;;2.17;1.50;;;5.50;99.90;;;;;;4824781;29;20416;-79
2021/04/07 10:46:55;;;;;;;1.60;1.50;;;5.90;99.90;;;;;;4840600;29;20409;-78
2021/04/07 10:49:21;;;;;;;3.00;1.53;;;6.20;99.90;;;;;;4807859;29;20770;-78
2021/04/07 10:52:04;;;;;;;1.43;1.33;;;6.60;99.90;;;;;;4836660;29;20427;-78
2021/04/07 10:54:29;;;;;;;3.17;1.48;;;6.20;99.90;;;;;;4824839;29;20798;-77
2021/04/07 10:57:07;;;;;;;1.50;1.40;;;6.00;99.90;;;;;;4823817;29;20477;-78
2021/04/07 10:59:33;;;;;;;1.85;1.58;;;5.60;99.90;;;;;;4840903;29;20464;-79
2021/04/07 11:02:00;;;;;;;2.05;1.60;;;5.90;99.90;;;;;;4836363;29;20430;-78
2021/04/07 11:04:32;;;;;;;3.10;1.90;;;6.00;99.90;;;;;;4813714;29;20412;-78
2021/04/07 11:06:58;;;;;;;2.75;1.60;;;6.10;99.90;;;;;;4837284;29;21113;-79
2021/04/07 11:09:31;;;;;;;3.88;1.90;;;6.30;99.90;;;;;;4839788;29;20422;-79
2021/04/07 11:11:58;;;;;;;3.85;1.92;;;6.70;99.90;;;;;;4812537;29;20947;-78
2021/04/07 11:14:24;;;;;;;3.95;1.88;;;6.80;99.90;;;;;;4839273;29;20446;-79
2021/04/07 11:17:01;;;;;;;1.58;1.40;;;7.10;99.90;;;;;;4841184;29;20411;-78
2021/04/07 11:19:34;;;;;;;2.10;1.60;;;7.50;99.90;;;;;;4846661;29;20812;-79
2021/04/07 11:22:00;;;;;;;2.73;1.47;;;7.50;99.90;;;;;;4847180;29;20412;-78
2021/04/07 11:24:25;;;;;;;2.83;1.63;;;7.50;99.90;;;;;;4848111;29;20439;-78
2021/04/07 11:26:54;;;;;;;4.25;2.33;;;7.50;99.90;;;;;;4822432;29;20429;-78
2021/04/07 11:29:20;;;;;;;3.20;2.15;;;7.00;99.90;;;;;;4814714;29;20424;-78
2021/04/07 11:31:49;;;;;;;3.03;2.03;;;6.70;99.90;;;;;;4838448;29;20873;-78
2021/04/07 11:34:17;;;;;;;3.40;1.85;;;6.30;99.90;;;;;;4831471;29;20402;-79
2021/04/07 11:37:10;;;;;;;2.63;1.80;;;6.10;99.90;;;;;;4819265;29;21112;-77
2021/04/07 11:39:43;;;;;;;1.60;1.50;;;6.20;99.90;;;;;;4832511;29;20491;-78
2021/04/07 11:42:22;;;;;;;4.60;2.27;;;6.10;99.90;;;;;;4839545;29;20497;-79
2021/04/07 11:44:48;;;;;;;2.05;1.60;;;6.50;99.90;;;;;;4838074;29;20406;-78
2021/04/07 11:47:14;;;;;;;1.85;1.40;;;6.80;99.90;;;;;;4827077;29;20412;-79
2021/04/07 11:49:39;;;;;;;2.85;1.63;;;6.70;99.90;;;;;;4841752;29;20418;-78
2021/04/07 11:52:05;;;;;;;1.57;1.47;;;6.50;99.90;;;;;;4837564;29;20480;-79
2021/04/07 11:54:31;;;;;;;2.40;1.40;;;6.30;99.90;;;;;;4838492;29;20423;-78
2021/04/07 11:56:57;;;;;;;1.50;1.40;;;6.00;99.90;;;;;;4822926;29;20441;-78
2021/04/07 11:59:24;;;;;;;3.50;1.60;;;5.60;99.90;;;;;;4837159;29;20406;-79
2021/04/07 12:01:50;;;;;;;2.25;1.42;;;6.10;99.90;;;;;;4841273;29;20436;-79
2021/04/07 12:04:16;;;;;;;2.38;1.58;;;6.70;99.90;;;;;;4827852;29;20468;-78
2021/04/07 12:06:42;;;;;;;2.50;1.33;;;7.20;99.90;;;;;;4835744;29;20416;-78
2021/04/07 12:09:07;;;;;;;1.45;1.30;;;7.50;99.90;;;;;;4838114;29;20419;-79
2021/04/07 12:11:33;;;;;;;1.17;1.10;;;7.80;99.90;;;;;;4836252;29;20434;-79
2021/04/07 12:13:59;;;;;;;2.90;1.40;;;8.20;99.90;;;;;;4836948;29;20915;-78
2021/04/07 12:16:25;;;;;;;2.17;1.52;;;8.20;99.90;;;;;;4825219;29;20408;-79
2021/04/07 12:18:50;;;;;;;2.90;1.27;;;8.70;99.90;;;;;;4833306;29;20415;-79
2021/04/07 12:21:16;;;;;;;3.75;1.45;;;8.40;99.20;;;;;;4844759;29;20409;-80
2021/04/07 12:23:43;;;;;;;1.42;1.30;;;8.00;99.90;;;;;;4845094;29;21348;-77
2021/04/07 12:26:09;;;;;;;2.25;1.58;;;7.90;99.90;;;;;;4839374;29;20997;-78
2021/04/07 12:28:34;;;;;;;3.55;1.40;;;8.00;99.80;;;;;;4836627;29;20447;-79
2021/04/07 12:31:00;;;;;;;3.50;1.37;;;7.90;97.70;;;;;;4821075;29;20446;-78
2021/04/07 12:33:28;;;;;;;1.77;1.52;;;7.70;99.80;;;;;;4840828;29;20432;-79
2021/04/07 12:36:03;;;;;;;1.73;1.50;;;7.90;99.40;;;;;;4836658;29;20407;-78
2021/04/07 12:38:31;;;;;;;1.40;1.30;;;7.80;98.70;;;;;;4839037;29;20494;-78
2021/04/07 12:40:59;;;;;;;1.50;1.40;;;7.60;98.00;;;;;;4823808;29;20404;-77
2021/04/07 12:43:25;;;;;;;2.95;1.58;;;7.80;99.90;;;;;;4840279;29;20414;-79
2021/04/07 12:45:50;;;;;;;2.20;1.30;;;7.80;96.10;;;;;;4848192;29;20545;-79
2021/04/07 12:48:16;;;;;;;4.30;1.40;;;7.60;98.00;;;;;;4832886;29;20403;-78
2021/04/07 12:50:42;;;;;;;1.85;1.33;;;7.20;96.20;;;;;;4837381;29;20404;-79
2021/04/07 12:53:08;;;;;;;1.40;1.30;;;6.80;99.50;;;;;;4838389;29;20432;-79
2021/04/07 12:55:33;;;;;;;1.60;1.50;;;6.80;99.90;;;;;;4838828;29;20870;-79
2021/04/07 12:58:00;;;;;;;1.63;1.52;;;7.30;99.90;;;;;;4845573;29;20404;-79
2021/04/07 13:00:27;;;;;;;1.42;1.33;;;7.40;99.90;;;;;;4831048;29;20433;-78
2021/04/07 13:02:52;;;;;;;1.23;1.13;;;7.30;99.10;;;;;;4826799;29;20415;-79
2021/04/07 13:05:18;;;;;;;1.27;1.15;;;7.10;97.30;;;;;;4845676;29;20387;-79